createdAt,value
2017-01-08T00:00:15.723Z,0
2017-01-08T00:01:38.693Z,0
2017-01-08T00:03:00.836Z,0
2017-01-08T00:04:23.462Z,0
2017-01-08T00:05:46.055Z,0
2017-01-08T00:07:08.568Z,0
2017-01-08T00:08:31.173Z,0
2017-01-08T00:09:53.693Z,0
2017-01-08T00:11:16.215Z,0
2017-01-08T00:12:38.747Z,0
2017-01-08T00:14:01.652Z,0
2017-01-08T00:15:23.780Z,0
2017-01-08T00:16:46.333Z,0
2017-01-08T00:18:08.431Z,0
2017-01-08T00:19:30.088Z,0
2017-01-08T00:20:52.293Z,0
2017-01-08T00:22:14.819Z,0
2017-01-08T00:23:37.784Z,0
2017-01-08T00:25:00.303Z,0
2017-01-08T00:26:23.178Z,0
2017-01-08T00:27:45.648Z,0
2017-01-08T00:29:08.543Z,0
2017-01-08T00:30:31.030Z,0
2017-01-08T00:31:53.113Z,0
2017-01-08T00:33:15.311Z,0
2017-01-08T00:34:38.180Z,0
2017-01-08T00:36:00.372Z,0
2017-01-08T00:37:23.259Z,0
2017-01-08T00:38:45.307Z,0
2017-01-08T00:40:07.804Z,0
2017-01-08T00:41:30.270Z,0
2017-01-08T00:42:53.131Z,0
2017-01-08T00:44:15.629Z,0
2017-01-08T00:45:38.108Z,0
2017-01-08T00:46:59.379Z,0
2017-01-08T00:48:21.576Z,0
2017-01-08T00:49:44.137Z,0
2017-01-08T00:51:07.068Z,0
2017-01-08T00:52:29.566Z,0
2017-01-08T00:53:52.173Z,0
2017-01-08T00:55:14.743Z,0
2017-01-08T00:56:37.610Z,0
2017-01-08T00:58:00.069Z,0
2017-01-08T00:59:22.543Z,0
2017-01-08T01:00:43.904Z,0
2017-01-08T01:02:06.883Z,0
2017-01-08T01:03:28.923Z,0
2017-01-08T01:04:51.383Z,0
2017-01-08T01:06:13.227Z,0
2017-01-08T01:07:35.802Z,0
2017-01-08T01:08:58.683Z,0
2017-01-08T01:10:21.540Z,0
2017-01-08T01:11:44.452Z,0
2017-01-08T01:13:06.929Z,0
2017-01-08T01:14:29.095Z,0
2017-01-08T01:15:51.953Z,0
2017-01-08T01:17:14.413Z,0
2017-01-08T01:18:37.289Z,0
2017-01-08T01:19:59.353Z,0
2017-01-08T01:21:21.481Z,0
2017-01-08T01:22:44.056Z,0
2017-01-08T01:24:06.211Z,0
2017-01-08T01:25:28.659Z,0
2017-01-08T01:26:51.141Z,0
2017-01-08T01:28:14.155Z,0
2017-01-08T01:29:36.245Z,0
2017-01-08T01:30:58.299Z,0
2017-01-08T01:32:21.156Z,0
2017-01-08T01:33:43.725Z,0
2017-01-08T01:35:06.653Z,0
2017-01-08T01:36:28.793Z,0
2017-01-08T01:37:50.837Z,0
2017-01-08T01:39:13.327Z,0
2017-01-08T01:40:36.288Z,0
2017-01-08T01:41:58.495Z,0
2017-01-08T01:43:20.631Z,0
2017-01-08T01:44:42.703Z,0
2017-01-08T01:46:05.650Z,0
2017-01-08T01:47:27.695Z,0
2017-01-08T01:48:50.656Z,0
2017-01-08T01:50:12.713Z,0
2017-01-08T01:51:34.401Z,0
2017-01-08T01:52:56.866Z,0
2017-01-08T01:54:18.986Z,0
2017-01-08T01:55:41.454Z,0
2017-01-08T01:57:03.923Z,0
2017-01-08T01:58:26.005Z,0
2017-01-08T01:59:47.726Z,0
2017-01-08T02:01:10.591Z,0
2017-01-08T02:02:33.064Z,0
2017-01-08T02:03:55.516Z,0
2017-01-08T02:05:18.455Z,0
2017-01-08T02:06:41.037Z,0
2017-01-08T02:08:03.951Z,0
2017-01-08T02:09:26.477Z,0
2017-01-08T02:10:48.632Z,0
2017-01-08T02:12:10.271Z,0
2017-01-08T02:13:32.741Z,0
2017-01-08T02:14:55.257Z,0
2017-01-08T02:16:16.907Z,0
2017-01-08T02:17:38.954Z,0
2017-01-08T02:19:01.115Z,0
2017-01-08T02:20:23.579Z,0
2017-01-08T02:21:46.459Z,0
2017-01-08T02:23:08.910Z,0
2017-01-08T02:24:30.577Z,0
2017-01-08T02:25:52.617Z,0
2017-01-08T02:27:15.072Z,0
2017-01-08T02:28:37.580Z,0
2017-01-08T02:29:59.356Z,0
2017-01-08T02:31:21.012Z,0
2017-01-08T02:32:43.918Z,0
2017-01-08T02:34:06.020Z,0
2017-01-08T02:35:28.471Z,0
2017-01-08T02:36:50.133Z,0
2017-01-08T02:38:11.855Z,0
2017-01-08T02:39:34.332Z,0
2017-01-08T02:40:56.387Z,0
2017-01-08T02:42:18.843Z,0
2017-01-08T02:43:41.394Z,0
2017-01-08T02:45:03.488Z,0
2017-01-08T02:46:26.353Z,0
2017-01-08T02:47:48.417Z,0
2017-01-08T02:49:10.473Z,0
2017-01-08T02:50:32.545Z,0
2017-01-08T02:51:54.641Z,0
2017-01-08T02:53:17.138Z,0
2017-01-08T02:54:39.995Z,0
2017-01-08T02:56:02.535Z,0
2017-01-08T02:57:23.394Z,0
2017-01-08T02:58:45.124Z,0
2017-01-08T03:00:07.183Z,0
2017-01-08T03:01:29.246Z,0
2017-01-08T03:02:52.142Z,0
2017-01-08T03:04:14.613Z,0
2017-01-08T03:05:36.731Z,0
2017-01-08T03:06:59.283Z,0
2017-01-08T03:08:21.546Z,0
2017-01-08T03:09:43.621Z,0
2017-01-08T03:11:05.751Z,0
2017-01-08T03:12:27.817Z,0
2017-01-08T03:13:49.900Z,0
2017-01-08T03:15:11.669Z,0
2017-01-08T03:16:33.427Z,0
2017-01-08T03:17:55.484Z,0
2017-01-08T03:19:17.562Z,0
2017-01-08T03:20:40.474Z,0
2017-01-08T03:22:02.538Z,0
2017-01-08T03:23:24.590Z,0
2017-01-08T03:24:47.528Z,0
2017-01-08T03:26:10.371Z,0
2017-01-08T03:27:32.486Z,0
2017-01-08T03:28:54.616Z,0
2017-01-08T03:30:16.676Z,0
2017-01-08T03:31:38.334Z,0
2017-01-08T03:33:00.849Z,0
2017-01-08T03:34:23.313Z,0
2017-01-08T03:35:45.375Z,0
2017-01-08T03:37:07.834Z,0
2017-01-08T03:38:29.898Z,0
2017-01-08T03:39:52.824Z,0
2017-01-08T03:41:15.285Z,0
2017-01-08T03:42:37.813Z,0
2017-01-08T03:44:00.258Z,0
2017-01-08T03:45:22.746Z,0
2017-01-08T03:46:45.245Z,0
2017-01-08T03:48:07.340Z,0
2017-01-08T03:49:29.413Z,0
2017-01-08T03:50:51.936Z,0
2017-01-08T03:52:14.089Z,0
2017-01-08T03:53:36.553Z,0
2017-01-08T03:54:59.414Z,0
2017-01-08T03:56:21.534Z,0
2017-01-08T03:57:43.625Z,0
2017-01-08T03:59:05.794Z,0
2017-01-08T04:00:27.883Z,0
2017-01-08T04:01:49.934Z,0
2017-01-08T04:03:11.715Z,0
2017-01-08T04:04:33.499Z,0
2017-01-08T04:05:55.632Z,0
2017-01-08T04:07:18.311Z,0
2017-01-08T04:08:41.160Z,0
2017-01-08T04:10:03.222Z,0
2017-01-08T04:11:25.282Z,0
2017-01-08T04:12:47.344Z,0
2017-01-08T04:14:09.415Z,0
2017-01-08T04:15:31.515Z,0
2017-01-08T04:16:53.976Z,0
2017-01-08T04:18:16.042Z,0
2017-01-08T04:19:38.145Z,0
2017-01-08T04:21:00.193Z,0
2017-01-08T04:22:22.644Z,0
2017-01-08T04:23:45.201Z,0
2017-01-08T04:25:06.885Z,0
2017-01-08T04:26:29.920Z,0
2017-01-08T04:27:52.787Z,0
2017-01-08T04:29:14.596Z,0
2017-01-08T04:30:37.175Z,0
2017-01-08T04:31:59.406Z,0
2017-01-08T04:33:21.871Z,0
2017-01-08T04:34:44.419Z,0
2017-01-08T04:36:05.415Z,0
2017-01-08T04:37:28.309Z,0
2017-01-08T04:38:50.852Z,0
2017-01-08T04:40:13.342Z,0
2017-01-08T04:41:35.004Z,0
2017-01-08T04:42:57.056Z,0
2017-01-08T04:44:19.099Z,0
2017-01-08T04:45:42.061Z,0
2017-01-08T04:47:04.145Z,0
2017-01-08T04:48:26.589Z,0
2017-01-08T04:49:49.107Z,0
2017-01-08T04:51:11.954Z,0
2017-01-08T04:52:33.991Z,0
2017-01-08T04:53:56.586Z,0
2017-01-08T04:55:19.453Z,0
2017-01-08T04:56:41.234Z,0
2017-01-08T04:58:03.808Z,0
2017-01-08T04:59:26.662Z,0
2017-01-08T05:00:48.731Z,0
2017-01-08T05:02:11.205Z,0
2017-01-08T05:03:33.249Z,0
2017-01-08T05:04:56.117Z,0
2017-01-08T05:06:18.990Z,0
2017-01-08T05:07:40.249Z,0
2017-01-08T05:09:03.120Z,0
2017-01-08T05:10:25.175Z,0
2017-01-08T05:11:48.189Z,0
2017-01-08T05:13:09.908Z,0
2017-01-08T05:14:32.781Z,0
2017-01-08T05:15:55.655Z,0
2017-01-08T05:17:16.929Z,0
2017-01-08T05:18:39.065Z,0
2017-01-08T05:20:01.167Z,0
2017-01-08T05:21:23.617Z,0
2017-01-08T05:22:44.937Z,0
2017-01-08T05:24:07.786Z,0
2017-01-08T05:25:30.339Z,0
2017-01-08T05:26:53.215Z,0
2017-01-08T05:28:14.984Z,0
2017-01-08T05:29:37.433Z,0
2017-01-08T05:30:59.497Z,0
2017-01-08T05:32:22.050Z,0
2017-01-08T05:33:43.715Z,0
2017-01-08T05:35:05.470Z,0
2017-01-08T05:36:27.979Z,0
2017-01-08T05:37:50.419Z,0
2017-01-08T05:39:12.940Z,0
2017-01-08T05:40:34.987Z,0
2017-01-08T05:41:57.049Z,0
2017-01-08T05:43:19.518Z,0
2017-01-08T05:44:42.030Z,0
2017-01-08T05:46:04.134Z,0
2017-01-08T05:47:25.798Z,0
2017-01-08T05:48:46.686Z,0
2017-01-08T05:50:08.334Z,0
2017-01-08T05:51:31.206Z,0
2017-01-08T05:52:53.664Z,0
2017-01-08T05:54:16.220Z,0
2017-01-08T05:55:39.065Z,0
2017-01-08T05:57:01.130Z,0
2017-01-08T05:58:23.685Z,0
2017-01-08T05:59:46.286Z,0
2017-01-08T06:01:09.226Z,0
2017-01-08T06:02:31.681Z,0
2017-01-08T06:03:54.530Z,0
2017-01-08T06:05:17.445Z,0
2017-01-08T06:06:40.303Z,0
2017-01-08T06:08:02.737Z,0
2017-01-08T06:09:24.783Z,0
2017-01-08T06:10:47.295Z,0
2017-01-08T06:12:08.985Z,0
2017-01-08T06:13:31.571Z,0
2017-01-08T06:14:54.070Z,0
2017-01-08T06:16:16.659Z,0
2017-01-08T06:17:38.738Z,0
2017-01-08T06:19:01.208Z,0
2017-01-08T06:20:23.325Z,0
2017-01-08T06:21:45.400Z,0
2017-01-08T06:23:07.857Z,0
2017-01-08T06:24:29.934Z,0
2017-01-08T06:25:51.622Z,0
2017-01-08T06:27:13.734Z,0
2017-01-08T06:28:35.400Z,0
2017-01-08T06:29:58.285Z,0
2017-01-08T06:31:20.885Z,0
2017-01-08T06:32:43.360Z,0
2017-01-08T06:34:05.423Z,0
2017-01-08T06:35:27.935Z,0
2017-01-08T06:36:50.470Z,0
2017-01-08T06:38:11.715Z,0
2017-01-08T06:39:34.171Z,0
2017-01-08T06:40:56.651Z,0
2017-01-08T06:42:18.327Z,0
2017-01-08T06:43:39.980Z,0
2017-01-08T06:45:01.653Z,0
2017-01-08T06:46:23.334Z,0
2017-01-08T06:47:45.534Z,0
2017-01-08T06:49:07.620Z,0
2017-01-08T06:50:28.998Z,0
2017-01-08T06:51:51.070Z,0
2017-01-08T06:53:12.766Z,0
2017-01-08T06:54:34.823Z,0
2017-01-08T06:55:57.788Z,0
2017-01-08T06:57:19.828Z,0
2017-01-08T06:58:42.799Z,0
2017-01-08T07:00:04.873Z,0
2017-01-08T07:01:27.355Z,0
2017-01-08T07:02:50.305Z,0
2017-01-08T07:04:12.410Z,0
2017-01-08T07:05:34.482Z,0
2017-01-08T07:06:57.045Z,0
2017-01-08T07:08:19.114Z,0
2017-01-08T07:09:41.566Z,0
2017-01-08T07:11:03.631Z,0
2017-01-08T07:12:25.698Z,0
2017-01-08T07:13:47.791Z,0
2017-01-08T07:15:10.712Z,0
2017-01-08T07:16:33.165Z,0
2017-01-08T07:17:55.243Z,0
2017-01-08T07:19:17.304Z,0
2017-01-08T07:20:39.448Z,0
2017-01-08T07:22:02.016Z,0
2017-01-08T07:23:24.512Z,0
2017-01-08T07:24:46.991Z,0
2017-01-08T07:26:09.483Z,0
2017-01-08T07:27:31.254Z,0
2017-01-08T07:28:53.747Z,0
2017-01-08T07:30:16.355Z,0
2017-01-08T07:31:38.403Z,0
2017-01-08T07:33:00.462Z,0
2017-01-08T07:34:22.633Z,0
2017-01-08T07:35:45.557Z,0
2017-01-08T07:37:07.246Z,5
2017-01-08T07:38:28.955Z,5
2017-01-08T07:39:51.852Z,5
2017-01-08T07:41:14.796Z,5
2017-01-08T07:42:36.075Z,5
2017-01-08T07:43:58.551Z,5
2017-01-08T07:45:21.483Z,5
2017-01-08T07:46:43.852Z,5
2017-01-08T07:48:06.348Z,5
2017-01-08T07:49:28.019Z,5
2017-01-08T07:50:50.127Z,5
2017-01-08T07:52:12.576Z,5
2017-01-08T07:53:35.029Z,5
2017-01-08T07:54:56.683Z,5
2017-01-08T07:56:19.159Z,10
2017-01-08T07:57:41.225Z,10
2017-01-08T07:59:03.698Z,10
2017-01-08T08:00:26.169Z,10
2017-01-08T08:01:48.234Z,10
2017-01-08T08:03:10.311Z,15
2017-01-08T08:04:33.228Z,15
2017-01-08T08:05:56.103Z,15
2017-01-08T08:07:19.005Z,15
2017-01-08T08:08:41.455Z,15
2017-01-08T08:10:02.797Z,20
2017-01-08T08:11:24.475Z,20
2017-01-08T08:12:46.625Z,20
2017-01-08T08:14:09.103Z,20
2017-01-08T08:15:31.559Z,20
2017-01-08T08:16:54.161Z,25
2017-01-08T08:18:17.050Z,25
2017-01-08T08:19:39.513Z,30
2017-01-08T08:21:01.963Z,30
2017-01-08T08:22:24.558Z,30
2017-01-08T08:23:47.022Z,35
2017-01-08T08:25:09.144Z,40
2017-01-08T08:26:31.635Z,40
2017-01-08T08:27:54.099Z,40
2017-01-08T08:29:15.941Z,45
2017-01-08T08:30:38.413Z,45
2017-01-08T08:32:00.871Z,45
2017-01-08T08:33:23.372Z,45
2017-01-08T08:34:45.161Z,45
2017-01-08T08:36:07.660Z,45
2017-01-08T08:37:29.753Z,50
2017-01-08T08:38:51.423Z,50
2017-01-08T08:40:13.093Z,50
2017-01-08T08:41:34.768Z,50
2017-01-08T08:42:56.850Z,55
2017-01-08T08:44:19.323Z,50
2017-01-08T08:45:42.450Z,50
2017-01-08T08:47:04.910Z,55
2017-01-08T08:48:27.952Z,60
2017-01-08T08:49:50.822Z,60
2017-01-08T08:51:12.889Z,60
2017-01-08T08:52:35.353Z,65
2017-01-08T08:53:57.012Z,70
2017-01-08T08:55:19.080Z,75
2017-01-08T08:56:42.030Z,75
2017-01-08T08:58:04.499Z,75
2017-01-08T08:59:26.983Z,75
2017-01-08T09:00:49.500Z,75
2017-01-08T09:02:12.072Z,75
2017-01-08T09:03:35.057Z,75
2017-01-08T09:04:57.538Z,75
2017-01-08T09:06:20.014Z,75
2017-01-08T09:07:42.082Z,80
2017-01-08T09:09:04.180Z,85
2017-01-08T09:10:25.564Z,85
2017-01-08T09:11:47.741Z,80
2017-01-08T09:13:09.837Z,80
2017-01-08T09:14:32.778Z,80
2017-01-08T09:15:55.296Z,75
2017-01-08T09:17:17.852Z,80
2017-01-08T09:18:39.906Z,80
2017-01-08T09:20:02.758Z,75
2017-01-08T09:21:24.939Z,80
2017-01-08T09:22:47.011Z,80
2017-01-08T09:24:08.799Z,85
2017-01-08T09:25:31.279Z,90
2017-01-08T09:26:54.224Z,90
2017-01-08T09:28:16.297Z,85
2017-01-08T09:29:39.189Z,90
2017-01-08T09:31:02.251Z,85
2017-01-08T09:32:24.309Z,80
2017-01-08T09:33:46.793Z,80
2017-01-08T09:35:08.975Z,80
2017-01-08T09:36:31.920Z,85
2017-01-08T09:37:54.413Z,90
2017-01-08T09:39:16.508Z,85
2017-01-08T09:40:39.405Z,80
2017-01-08T09:42:01.097Z,80
2017-01-08T09:43:23.980Z,80
2017-01-08T09:44:46.860Z,85
2017-01-08T09:46:08.631Z,85
2017-01-08T09:47:30.723Z,85
2017-01-08T09:48:53.609Z,90
2017-01-08T09:50:16.551Z,95
2017-01-08T09:51:38.849Z,100
2017-01-08T09:53:01.329Z,95
2017-01-08T09:54:24.215Z,100
2017-01-08T09:55:46.292Z,105
2017-01-08T09:57:08.360Z,100
2017-01-08T09:58:30.499Z,105
2017-01-08T09:59:53.380Z,105
2017-01-08T10:01:15.952Z,95
2017-01-08T10:02:38.830Z,90
2017-01-08T10:04:00.552Z,95
2017-01-08T10:05:22.632Z,90
2017-01-08T10:06:44.686Z,90
2017-01-08T10:08:07.235Z,90
2017-01-08T10:09:29.710Z,95
2017-01-08T10:10:52.720Z,100
2017-01-08T10:12:15.749Z,105
2017-01-08T10:13:38.717Z,110
2017-01-08T10:15:00.405Z,105
2017-01-08T10:16:23.099Z,105
2017-01-08T10:17:45.681Z,95
2017-01-08T10:19:07.868Z,95
2017-01-08T10:20:30.653Z,95
2017-01-08T10:21:53.381Z,95
2017-01-08T10:23:16.397Z,95
2017-01-08T10:24:39.439Z,100
2017-01-08T10:26:02.568Z,110
2017-01-08T10:27:23.724Z,110
2017-01-08T10:28:45.497Z,105
2017-01-08T10:30:07.927Z,90
2017-01-08T10:31:30.228Z,85
2017-01-08T10:32:52.540Z,75
2017-01-08T10:34:15.171Z,80
2017-01-08T10:35:38.213Z,90
2017-01-08T10:37:00.239Z,95
2017-01-08T10:38:22.999Z,95
2017-01-08T10:39:46.038Z,90
2017-01-08T10:41:09.470Z,95
2017-01-08T10:42:32.252Z,90
2017-01-08T10:43:55.089Z,95
2017-01-08T10:45:17.879Z,95
2017-01-08T10:46:39.966Z,95
2017-01-08T10:48:01.644Z,95
2017-01-08T10:49:24.520Z,95
2017-01-08T10:50:47.272Z,95
2017-01-08T10:52:09.468Z,100
2017-01-08T10:53:31.857Z,100
2017-01-08T10:54:55.282Z,95
2017-01-08T10:56:17.983Z,95
2017-01-08T10:57:40.981Z,95
2017-01-08T10:59:03.997Z,95
2017-01-08T11:00:27.270Z,95
2017-01-08T11:01:50.109Z,90
2017-01-08T11:03:12.659Z,85
2017-01-08T11:04:36.211Z,80
2017-01-08T11:05:58.749Z,80
2017-01-08T11:07:21.237Z,75
2017-01-08T11:08:44.435Z,80
2017-01-08T11:10:07.210Z,80
2017-01-08T11:11:30.170Z,80
2017-01-08T11:12:53.271Z,80
2017-01-08T11:14:16.653Z,80
2017-01-08T11:15:39.794Z,85
2017-01-08T11:17:03.162Z,85
2017-01-08T11:18:26.503Z,85
2017-01-08T11:19:50.596Z,85
2017-01-08T11:21:14.517Z,85
2017-01-08T11:22:37.120Z,90
2017-01-08T11:23:59.735Z,95
2017-01-08T11:25:23.151Z,95
2017-01-08T11:26:45.963Z,100
2017-01-08T11:28:09.483Z,95
2017-01-08T11:29:33.131Z,90
2017-01-08T11:30:56.870Z,80
2017-01-08T11:32:20.381Z,80
2017-01-08T11:33:44.183Z,75
2017-01-08T11:35:06.650Z,75
2017-01-08T11:36:29.109Z,80
2017-01-08T11:37:51.736Z,80
2017-01-08T11:39:15.917Z,90
2017-01-08T11:40:39.781Z,100
2017-01-08T11:42:03.475Z,100
2017-01-08T11:43:27.228Z,95
2017-01-08T11:44:50.389Z,90
2017-01-08T11:46:14.550Z,85
2017-01-08T11:47:38.574Z,85
2017-01-08T11:49:02.161Z,90
2017-01-08T11:50:26.901Z,95
2017-01-08T11:51:49.452Z,95
2017-01-08T11:53:14.281Z,90
2017-01-08T11:54:37.446Z,90
2017-01-08T11:56:01.392Z,85
2017-01-08T11:57:24.634Z,85
2017-01-08T11:58:48.590Z,85
2017-01-08T12:00:11.460Z,85
2017-01-08T12:01:35.144Z,85
2017-01-08T12:03:00.213Z,85
2017-01-08T12:04:24.340Z,85
2017-01-08T12:05:47.532Z,80
2017-01-08T12:07:10.709Z,75
2017-01-08T12:08:35.120Z,75
2017-01-08T12:09:58.789Z,75
2017-01-08T12:11:21.332Z,80
2017-01-08T12:12:45.228Z,75
2017-01-08T12:14:08.191Z,70
2017-01-08T12:15:32.085Z,70
2017-01-08T12:16:56.786Z,70
2017-01-08T12:18:21.182Z,70
2017-01-08T12:19:45.301Z,65
2017-01-08T12:21:08.483Z,70
2017-01-08T12:22:32.078Z,70
2017-01-08T12:23:54.273Z,65
2017-01-08T12:25:17.773Z,70
2017-01-08T12:26:41.623Z,70
2017-01-08T12:28:04.015Z,65
2017-01-08T12:29:26.686Z,70
2017-01-08T12:30:50.364Z,70
2017-01-08T12:32:14.001Z,75
2017-01-08T12:33:38.012Z,70
2017-01-08T12:35:01.332Z,65
2017-01-08T12:36:25.226Z,75
2017-01-08T12:37:48.878Z,80
2017-01-08T12:39:11.352Z,75
2017-01-08T12:40:35.533Z,75
2017-01-08T12:41:59.042Z,75
2017-01-08T12:43:23.157Z,65
2017-01-08T12:44:47.564Z,65
2017-01-08T12:46:11.469Z,60
2017-01-08T12:47:33.913Z,60
2017-01-08T12:48:57.774Z,55
2017-01-08T12:50:21.684Z,55
2017-01-08T12:51:45.314Z,60
2017-01-08T12:53:11.015Z,60
2017-01-08T12:54:34.564Z,65
2017-01-08T12:55:57.334Z,65
2017-01-08T12:57:19.597Z,65
2017-01-08T12:58:44.263Z,65
2017-01-08T13:00:09.904Z,60
2017-01-08T13:01:33.744Z,60
2017-01-08T13:02:58.864Z,60
2017-01-08T13:04:23.245Z,60
2017-01-08T13:05:47.135Z,60
2017-01-08T13:07:10.137Z,50
2017-01-08T13:08:33.995Z,45
2017-01-08T13:09:57.481Z,40
2017-01-08T13:11:20.847Z,40
2017-01-08T13:12:44.745Z,40
2017-01-08T13:14:07.135Z,40
2017-01-08T13:15:31.023Z,45
2017-01-08T13:16:56.337Z,50
2017-01-08T13:18:19.754Z,55
2017-01-08T13:19:42.435Z,60
2017-01-08T13:21:06.097Z,55
2017-01-08T13:22:29.523Z,55
2017-01-08T13:23:53.135Z,55
2017-01-08T13:25:17.595Z,50
2017-01-08T13:26:41.838Z,50
2017-01-08T13:28:05.786Z,45
2017-01-08T13:29:29.567Z,45
2017-01-08T13:30:52.466Z,45
2017-01-08T13:32:16.385Z,45
2017-01-08T13:33:40.066Z,45
2017-01-08T13:35:04.968Z,45
2017-01-08T13:36:29.605Z,45
2017-01-08T13:37:53.034Z,40
2017-01-08T13:39:16.969Z,40
2017-01-08T13:40:40.442Z,40
2017-01-08T13:42:03.463Z,40
2017-01-08T13:43:26.794Z,40
2017-01-08T13:44:51.053Z,40
2017-01-08T13:46:14.773Z,40
2017-01-08T13:47:38.050Z,40
2017-01-08T13:49:01.296Z,35
2017-01-08T13:50:25.007Z,35
2017-01-08T13:51:48.556Z,35
2017-01-08T13:53:12.154Z,35
2017-01-08T13:54:35.853Z,30
2017-01-08T13:55:59.751Z,30
2017-01-08T13:57:23.137Z,30
2017-01-08T13:58:46.833Z,30
2017-01-08T14:00:10.704Z,30
2017-01-08T14:01:34.554Z,30
2017-01-08T14:02:56.633Z,30
2017-01-08T14:04:19.696Z,30
2017-01-08T14:05:42.842Z,30
2017-01-08T14:07:05.973Z,30
2017-01-08T14:08:29.947Z,30
2017-01-08T14:09:53.876Z,30
2017-01-08T14:11:16.184Z,30
2017-01-08T14:12:40.191Z,25
2017-01-08T14:14:03.467Z,25
2017-01-08T14:15:27.095Z,25
2017-01-08T14:16:51.557Z,25
2017-01-08T14:18:15.231Z,25
2017-01-08T14:19:37.324Z,25
2017-01-08T14:20:59.173Z,20
2017-01-08T14:22:22.019Z,20
2017-01-08T14:23:44.682Z,20
2017-01-08T14:25:08.765Z,20
2017-01-08T14:26:32.208Z,20
2017-01-08T14:27:55.264Z,20
2017-01-08T14:29:18.496Z,20
2017-01-08T14:30:41.536Z,20
2017-01-08T14:32:05.297Z,20
2017-01-08T14:33:28.467Z,20
2017-01-08T14:34:51.048Z,20
2017-01-08T14:36:15.587Z,20
2017-01-08T14:37:39.393Z,15
2017-01-08T14:39:02.144Z,15
2017-01-08T14:40:27.716Z,20
2017-01-08T14:41:52.169Z,20
2017-01-08T14:43:14.449Z,20
2017-01-08T14:44:38.842Z,20
2017-01-08T14:46:02.487Z,20
2017-01-08T14:47:27.171Z,20
2017-01-08T14:48:52.009Z,15
2017-01-08T14:50:15.936Z,15
2017-01-08T14:51:39.486Z,15
2017-01-08T14:53:04.248Z,15
2017-01-08T14:54:27.359Z,15
2017-01-08T14:55:50.287Z,10
2017-01-08T14:57:14.169Z,10
2017-01-08T14:58:36.776Z,10
2017-01-08T15:00:00.581Z,10
2017-01-08T15:01:24.290Z,10
2017-01-08T15:02:47.467Z,10
2017-01-08T15:04:10.840Z,5
2017-01-08T15:05:34.744Z,5
2017-01-08T15:06:58.963Z,5
2017-01-08T15:08:23.193Z,5
2017-01-08T15:09:47.945Z,5
2017-01-08T15:11:11.812Z,5
2017-01-08T15:12:34.921Z,5
2017-01-08T15:13:58.574Z,5
2017-01-08T15:15:21.807Z,5
2017-01-08T15:16:46.227Z,0
2017-01-08T15:18:09.156Z,0
2017-01-08T15:19:33.744Z,0
2017-01-08T15:20:57.295Z,0
2017-01-08T15:22:20.380Z,0
2017-01-08T15:23:43.622Z,0
2017-01-08T15:25:07.042Z,0
2017-01-08T15:26:30.537Z,0
2017-01-08T15:27:54.008Z,0
2017-01-08T15:29:17.544Z,0
2017-01-08T15:30:42.262Z,0
2017-01-08T15:32:07.225Z,0
2017-01-08T15:33:31.271Z,0
2017-01-08T15:34:53.734Z,0
2017-01-08T15:36:16.637Z,0
2017-01-08T15:37:41.131Z,0
2017-01-08T15:39:05.063Z,0
2017-01-08T15:40:28.890Z,0
2017-01-08T15:41:52.785Z,0
2017-01-08T15:43:16.097Z,0
2017-01-08T15:44:40.269Z,0
2017-01-08T15:46:04.063Z,0
2017-01-08T15:47:27.384Z,0
2017-01-08T15:48:51.576Z,0
2017-01-08T15:50:15.079Z,0
2017-01-08T15:51:40.095Z,0
2017-01-08T15:53:05.350Z,0
2017-01-08T15:54:28.647Z,0
2017-01-08T15:55:52.080Z,0
2017-01-08T15:57:15.264Z,0
2017-01-08T15:58:38.753Z,0
2017-01-08T16:00:02.263Z,0
2017-01-08T16:01:25.700Z,0
2017-01-08T16:02:49.366Z,0
2017-01-08T16:04:12.570Z,0
2017-01-08T16:05:36.882Z,0
2017-01-08T16:07:00.649Z,0
2017-01-08T16:08:24.937Z,0
2017-01-08T16:09:48.895Z,0
2017-01-08T16:11:12.415Z,0
2017-01-08T16:12:35.811Z,0
2017-01-08T16:13:59.524Z,0
2017-01-08T16:15:24.113Z,0
2017-01-08T16:16:49.183Z,0
2017-01-08T16:18:12.379Z,0
2017-01-08T16:19:37.657Z,0
2017-01-08T16:21:02.317Z,0
2017-01-08T16:22:25.911Z,0
2017-01-08T16:23:50.161Z,0
2017-01-08T16:25:14.702Z,0
2017-01-08T16:26:39.247Z,0
2017-01-08T16:28:02.768Z,0
2017-01-08T16:29:26.931Z,0
2017-01-08T16:30:50.437Z,0
2017-01-08T16:32:14.333Z,0
2017-01-08T16:33:39.393Z,0
2017-01-08T16:35:04.057Z,0
2017-01-08T16:36:28.129Z,0
2017-01-08T16:37:51.578Z,0
2017-01-08T16:39:16.033Z,0
2017-01-08T16:40:38.943Z,0
2017-01-08T16:42:02.593Z,0
2017-01-08T16:43:26.639Z,0
2017-01-08T16:44:49.315Z,0
2017-01-08T16:46:13.399Z,0
2017-01-08T16:47:37.932Z,0
2017-01-08T16:49:01.102Z,0
2017-01-08T16:50:25.824Z,0
2017-01-08T16:51:51.436Z,0
2017-01-08T16:53:16.437Z,0
2017-01-08T16:54:40.980Z,0
2017-01-08T16:56:05.443Z,0
2017-01-08T16:57:28.579Z,0
2017-01-08T16:58:52.902Z,0
2017-01-08T17:00:15.630Z,0
2017-01-08T17:01:40.010Z,0
2017-01-08T17:03:04.780Z,0
2017-01-08T17:04:27.927Z,0
2017-01-08T17:05:52.470Z,0
2017-01-08T17:07:17.501Z,0
2017-01-08T17:08:42.653Z,0
2017-01-08T17:10:07.292Z,0
2017-01-08T17:11:32.354Z,0
2017-01-08T17:12:55.310Z,0
2017-01-08T17:14:19.196Z,0
2017-01-08T17:15:43.439Z,0
2017-01-08T17:17:08.049Z,0
2017-01-08T17:18:31.312Z,0
2017-01-08T17:19:55.613Z,0
2017-01-08T17:21:18.142Z,0
2017-01-08T17:22:41.142Z,0
2017-01-08T17:24:03.758Z,0
2017-01-08T17:25:27.524Z,0
2017-01-08T17:26:52.019Z,0
2017-01-08T17:28:14.788Z,0
2017-01-08T17:29:38.086Z,0
2017-01-08T17:31:00.764Z,0
2017-01-08T17:32:23.607Z,0
2017-01-08T17:34:18.612Z,0
2017-01-08T17:35:41.362Z,0
2017-01-08T17:37:02.914Z,0
2017-01-08T17:38:25.800Z,0
2017-01-08T17:39:49.217Z,0
2017-01-08T17:41:12.514Z,0
2017-01-08T17:42:34.813Z,0
2017-01-08T17:43:57.273Z,0
2017-01-08T17:45:19.066Z,0
2017-01-08T17:46:41.785Z,0
2017-01-08T17:48:04.559Z,0
2017-01-08T17:49:27.671Z,0
2017-01-08T17:50:49.934Z,0
2017-01-08T17:52:12.200Z,0
2017-01-08T17:53:34.824Z,0
2017-01-08T17:54:57.738Z,0
2017-01-08T17:56:20.490Z,0
2017-01-08T17:57:43.420Z,0
2017-01-08T17:59:06.336Z,0
2017-01-08T18:00:28.951Z,0
2017-01-08T18:01:51.083Z,0
2017-01-08T18:03:13.747Z,0
2017-01-08T18:04:36.391Z,0
2017-01-08T18:05:59.189Z,0
2017-01-08T18:07:22.153Z,0
2017-01-08T18:08:44.266Z,0
2017-01-08T18:10:07.225Z,0
2017-01-08T18:11:30.132Z,0
2017-01-08T18:12:52.254Z,0
2017-01-08T18:14:15.234Z,0
2017-01-08T18:15:38.201Z,0
2017-01-08T18:17:00.772Z,0
2017-01-08T18:18:23.745Z,0
2017-01-08T18:19:46.477Z,0
2017-01-08T18:21:08.585Z,0
2017-01-08T18:22:31.631Z,0
2017-01-08T18:23:54.673Z,0
2017-01-08T18:25:17.217Z,0
2017-01-08T18:26:39.796Z,0
2017-01-08T18:28:02.324Z,0
2017-01-08T18:29:24.974Z,0
2017-01-08T18:30:47.555Z,0
2017-01-08T18:32:10.105Z,0
2017-01-08T18:33:32.672Z,0
2017-01-08T18:34:54.457Z,0
2017-01-08T18:36:17.153Z,0
2017-01-08T18:37:39.669Z,0
2017-01-08T18:39:01.848Z,0
2017-01-08T18:40:24.785Z,0
2017-01-08T18:41:47.714Z,0
2017-01-08T18:43:09.811Z,0
2017-01-08T18:44:32.350Z,0
2017-01-08T18:45:54.864Z,0
2017-01-08T18:47:17.854Z,0
2017-01-08T18:48:40.073Z,0
2017-01-08T18:50:02.336Z,0
2017-01-08T18:51:25.294Z,0
2017-01-08T18:52:47.827Z,0
2017-01-08T18:54:09.946Z,0
2017-01-08T18:55:32.473Z,0
2017-01-08T18:56:54.688Z,0
2017-01-08T18:58:16.452Z,0
2017-01-08T18:59:39.012Z,0
2017-01-08T19:00:59.952Z,0
2017-01-08T19:02:22.247Z,0
2017-01-08T19:03:45.310Z,0
2017-01-08T19:05:07.829Z,0
2017-01-08T19:06:30.908Z,0
2017-01-08T19:07:54.162Z,0
2017-01-08T19:09:17.139Z,0
2017-01-08T19:10:39.256Z,0
2017-01-08T19:12:02.513Z,0
2017-01-08T19:13:25.412Z,0
2017-01-08T19:14:47.984Z,0
2017-01-08T19:16:10.185Z,0
2017-01-08T19:17:32.785Z,0
2017-01-08T19:18:55.765Z,0
2017-01-08T19:20:18.369Z,0
2017-01-08T19:21:40.574Z,0
2017-01-08T19:23:03.227Z,0
2017-01-08T19:24:25.525Z,0
2017-01-08T19:25:48.261Z,0
2017-01-08T19:27:10.861Z,0
2017-01-08T19:28:33.018Z,0
2017-01-08T19:29:55.638Z,0
2017-01-08T19:31:18.297Z,0
2017-01-08T19:32:40.935Z,0
2017-01-08T19:34:03.286Z,0
2017-01-08T19:35:25.026Z,0
2017-01-08T19:36:48.048Z,0
2017-01-08T19:38:10.750Z,0
2017-01-08T19:39:33.342Z,0
2017-01-08T19:40:56.045Z,0
2017-01-08T19:42:18.720Z,0
2017-01-08T19:43:41.768Z,0
2017-01-08T19:45:04.735Z,0
2017-01-08T19:46:26.182Z,0
2017-01-08T19:47:49.188Z,0
2017-01-08T19:49:12.303Z,0
2017-01-08T19:50:35.032Z,0
2017-01-08T19:51:58.044Z,0
2017-01-08T19:53:21.129Z,0
2017-01-08T19:54:43.782Z,0
2017-01-08T19:56:06.989Z,0
2017-01-08T19:57:30.037Z,0
2017-01-08T19:58:53.103Z,0
2017-01-08T20:00:15.739Z,0
2017-01-08T20:01:38.777Z,0
2017-01-08T20:03:01.406Z,0
2017-01-08T20:04:24.064Z,0
2017-01-08T20:05:47.230Z,0
2017-01-08T20:07:09.938Z,0
2017-01-08T20:08:32.656Z,0